createdAt,value
2018-06-27T00:02:04.926Z,99.90
2018-06-27T00:04:33.297Z,99.90
2018-06-27T00:07:01.616Z,99.90
2018-06-27T00:09:29.835Z,99.90
2018-06-27T00:11:58.124Z,99.90
2018-06-27T00:14:26.339Z,99.90
2018-06-27T00:16:54.598Z,99.90
2018-06-27T00:19:22.897Z,99.90
2018-06-27T00:21:51.375Z,99.90
2018-06-27T00:24:19.580Z,99.90
2018-06-27T00:26:47.827Z,99.90
2018-06-27T00:29:16.007Z,99.90
2018-06-27T00:31:44.544Z,99.90
2018-06-27T00:34:12.790Z,99.90
2018-06-27T00:36:41.458Z,99.90
2018-06-27T00:39:10.360Z,99.90
2018-06-27T00:41:38.928Z,99.90
2018-06-27T00:44:07.235Z,99.90
2018-06-27T00:46:35.895Z,99.90
2018-06-27T00:49:04.385Z,99.90
2018-06-27T00:51:32.884Z,99.90
2018-06-27T00:54:08.612Z,99.90
2018-06-27T00:56:40.069Z,99.90
2018-06-27T00:59:08.624Z,99.90
2018-06-27T01:01:37.365Z,99.90
2018-06-27T01:04:05.647Z,99.90
2018-06-27T01:06:33.897Z,99.90
2018-06-27T01:09:02.335Z,99.90
2018-06-27T01:11:31.569Z,99.90
2018-06-27T01:14:02.892Z,99.90
2018-06-27T01:16:31.099Z,99.90
2018-06-27T01:18:59.349Z,99.90
2018-06-27T01:21:27.571Z,99.90
2018-06-27T01:23:56.075Z,99.90
2018-06-27T01:26:24.326Z,99.90
2018-06-27T01:28:52.535Z,99.90
2018-06-27T01:31:21.026Z,99.90
2018-06-27T01:33:49.263Z,99.90
2018-06-27T01:36:17.770Z,99.90
2018-06-27T01:38:46.210Z,99.90
2018-06-27T01:41:14.439Z,99.90
2018-06-27T01:43:42.707Z,99.90
2018-06-27T01:46:11.005Z,99.90
2018-06-27T01:48:39.265Z,99.90
2018-06-27T01:51:07.760Z,99.90
2018-06-27T01:53:37.489Z,99.90
2018-06-27T01:56:06.915Z,99.90
2018-06-27T01:58:35.197Z,99.90
2018-06-27T02:01:03.380Z,99.90
2018-06-27T02:03:32.073Z,99.90
2018-06-27T02:06:00.360Z,99.90
2018-06-27T02:08:29.587Z,99.90
2018-06-27T02:10:58.333Z,99.90
2018-06-27T02:13:26.618Z,99.90
2018-06-27T02:15:54.829Z,99.90
2018-06-27T02:18:23.071Z,99.90
2018-06-27T02:20:51.334Z,99.90
2018-06-27T02:23:19.967Z,99.90
2018-06-27T02:25:48.247Z,99.90
2018-06-27T02:28:16.700Z,99.90
2018-06-27T02:30:44.989Z,99.90
2018-06-27T02:33:18.620Z,99.90
2018-06-27T02:35:46.832Z,99.90
2018-06-27T02:38:15.246Z,99.90
2018-06-27T02:40:43.590Z,99.90
2018-06-27T02:43:12.097Z,99.90
2018-06-27T02:45:40.332Z,99.90
2018-06-27T02:48:08.568Z,99.90
2018-06-27T02:50:36.774Z,99.90
2018-06-27T02:53:05.105Z,99.90
2018-06-27T02:55:33.405Z,99.90
2018-06-27T02:58:01.645Z,99.90
2018-06-27T03:00:29.874Z,99.90
2018-06-27T03:02:58.180Z,99.90
2018-06-27T03:05:26.467Z,99.90
2018-06-27T03:07:59.893Z,99.90
2018-06-27T03:10:28.151Z,99.90
2018-06-27T03:12:56.384Z,99.90
2018-06-27T03:15:25.938Z,99.90
2018-06-27T03:17:54.255Z,99.90
2018-06-27T03:20:22.504Z,99.90
2018-06-27T03:22:51.010Z,99.90
2018-06-27T03:25:19.232Z,99.90
2018-06-27T03:27:47.533Z,99.90
2018-06-27T03:30:16.240Z,99.90
2018-06-27T03:32:44.502Z,99.90
2018-06-27T03:35:13.023Z,99.90
2018-06-27T03:37:41.212Z,99.90
2018-06-27T03:40:09.931Z,99.90
2018-06-27T03:42:38.175Z,99.90
2018-06-27T03:45:06.432Z,99.90
2018-06-27T03:47:34.645Z,99.90
2018-06-27T03:50:02.851Z,99.90
2018-06-27T03:52:31.123Z,99.90
2018-06-27T03:55:00.019Z,99.90
2018-06-27T03:57:28.288Z,99.90
2018-06-27T03:59:56.502Z,99.90
2018-06-27T04:02:24.749Z,99.90
2018-06-27T04:04:52.983Z,99.90
2018-06-27T04:07:21.300Z,99.90
2018-06-27T04:09:49.535Z,99.90
2018-06-27T04:12:17.787Z,99.90
2018-06-27T04:14:46.015Z,99.90
2018-06-27T04:17:14.323Z,99.90
2018-06-27T04:19:42.566Z,99.90
2018-06-27T04:22:10.804Z,99.90
2018-06-27T04:24:39.037Z,99.90
2018-06-27T04:27:07.392Z,99.90
2018-06-27T04:29:35.623Z,99.90
2018-06-27T04:32:03.902Z,99.90
2018-06-27T04:34:32.159Z,99.90
2018-06-27T04:37:00.389Z,99.90
2018-06-27T04:39:28.628Z,99.90
2018-06-27T04:41:56.845Z,99.90
2018-06-27T04:44:25.103Z,99.90
2018-06-27T04:46:53.382Z,99.90
2018-06-27T04:49:21.639Z,99.90
2018-06-27T04:51:50.177Z,99.90
2018-06-27T04:54:18.392Z,99.90
2018-06-27T04:56:46.654Z,99.90
2018-06-27T04:59:14.874Z,99.90
2018-06-27T05:01:43.125Z,99.90
2018-06-27T05:04:11.364Z,99.90
2018-06-27T05:06:39.611Z,99.90
2018-06-27T05:09:09.658Z,99.90
2018-06-27T05:11:38.501Z,99.90
2018-06-27T05:14:07.272Z,99.90
2018-06-27T05:16:35.524Z,99.90
2018-06-27T05:19:03.736Z,99.90
2018-06-27T05:21:32.014Z,99.90
2018-06-27T05:24:00.252Z,99.90
2018-06-27T05:26:28.473Z,99.90
2018-06-27T05:28:57.751Z,99.90
2018-06-27T05:31:26.026Z,99.90
2018-06-27T05:33:54.575Z,99.90
2018-06-27T05:36:23.028Z,99.90
2018-06-27T05:38:51.676Z,99.90
2018-06-27T05:41:20.365Z,99.90
2018-06-27T05:43:48.740Z,99.90
2018-06-27T05:46:17.104Z,99.90
2018-06-27T05:48:45.546Z,99.90
2018-06-27T05:51:14.189Z,99.90
2018-06-27T05:53:42.713Z,99.90
2018-06-27T05:56:11.167Z,99.90
2018-06-27T05:58:39.428Z,99.90
2018-06-27T06:01:07.620Z,99.90
2018-06-27T06:03:35.994Z,99.90
2018-06-27T06:06:05.084Z,99.90
2018-06-27T06:08:34.447Z,99.90
2018-06-27T06:11:03.114Z,99.90
2018-06-27T06:13:31.411Z,99.90
2018-06-27T06:15:59.739Z,99.90
2018-06-27T06:18:28.012Z,99.90
2018-06-27T06:20:56.355Z,99.90
2018-06-27T06:23:24.772Z,99.90
2018-06-27T06:25:53.074Z,99.90
2018-06-27T06:28:21.499Z,99.90
2018-06-27T06:30:49.981Z,99.90
2018-06-27T06:33:18.584Z,99.80
2018-06-27T06:35:47.725Z,99.80
2018-06-27T06:38:15.993Z,99.90
2018-06-27T06:40:44.248Z,99.90
2018-06-27T06:43:12.583Z,99.90
2018-06-27T06:45:40.866Z,99.90
2018-06-27T06:48:09.122Z,99.90
2018-06-27T06:50:37.412Z,99.90
2018-06-27T06:53:05.676Z,99.90
2018-06-27T06:55:33.908Z,99.90
2018-06-27T06:58:02.679Z,99.90
2018-06-27T07:00:30.971Z,99.90
2018-06-27T07:02:59.422Z,99.70
2018-06-27T07:05:27.690Z,98.70
2018-06-27T07:07:55.947Z,98.40
2018-06-27T07:10:24.519Z,99.30
2018-06-27T07:12:52.807Z,99.80
2018-06-27T07:15:21.549Z,99.40
2018-06-27T07:17:49.836Z,99.10
2018-06-27T07:20:18.749Z,98.80
2018-06-27T07:22:46.963Z,99.10
2018-06-27T07:25:15.988Z,98.60
2018-06-27T07:27:44.789Z,98.10
2018-06-27T07:30:13.058Z,97.80
2018-06-27T07:32:41.816Z,97.80
2018-06-27T07:35:10.665Z,97.80
2018-06-27T07:37:39.006Z,97.20
2018-06-27T07:40:07.228Z,96.90
2018-06-27T07:42:35.843Z,96.50
2018-06-27T07:45:04.153Z,95.90
2018-06-27T07:47:32.395Z,96.10
2018-06-27T07:50:00.738Z,96.10
2018-06-27T07:52:28.928Z,96.70
2018-06-27T07:54:57.299Z,97.00
2018-06-27T07:57:25.619Z,96.60
2018-06-27T07:59:53.821Z,96.30
2018-06-27T08:02:22.035Z,95.90
2018-06-27T08:04:50.343Z,94.50
2018-06-27T08:07:18.566Z,94.00
2018-06-27T08:09:47.009Z,93.80
2018-06-27T08:12:15.268Z,93.30
2018-06-27T08:14:44.043Z,92.90
2018-06-27T08:17:12.279Z,93.10
2018-06-27T08:19:40.583Z,92.40
2018-06-27T08:22:08.807Z,92.50
2018-06-27T08:24:37.067Z,91.90
2018-06-27T08:27:05.391Z,91.90
2018-06-27T08:29:34.928Z,91.90
2018-06-27T08:32:03.171Z,92.50
2018-06-27T08:34:31.460Z,93.10
2018-06-27T08:36:59.724Z,92.30
2018-06-27T08:39:28.037Z,92.90
2018-06-27T08:41:56.325Z,92.90
2018-06-27T08:44:24.660Z,92.60
2018-06-27T08:46:52.911Z,91.80
2018-06-27T08:49:21.189Z,91.30
2018-06-27T08:51:49.515Z,91.10
2018-06-27T08:54:17.765Z,91.80
2018-06-27T08:56:46.065Z,90.20
2018-06-27T08:59:14.309Z,89.70
2018-06-27T09:01:42.580Z,87.20
2018-06-27T09:04:11.012Z,87.80
2018-06-27T09:09:08.963Z,85.20
2018-06-27T09:11:37.308Z,84.90
2018-06-27T09:14:07.461Z,85.60
2018-06-27T09:16:35.772Z,86.80
2018-06-27T09:19:04.288Z,86.40
2018-06-27T09:21:32.579Z,86.50
2018-06-27T09:24:01.202Z,82.90
2018-06-27T09:26:29.548Z,84.60
2018-06-27T09:28:57.801Z,81.40
2018-06-27T09:31:26.018Z,84.80
2018-06-27T09:33:55.089Z,80.70
2018-06-27T09:36:23.431Z,81.50
2018-06-27T09:38:51.756Z,83.80
2018-06-27T09:41:20.081Z,82.00
2018-06-27T09:43:49.290Z,81.20
2018-06-27T09:46:17.650Z,81.50
2018-06-27T09:48:46.100Z,79.20
2018-06-27T09:51:14.445Z,78.50
2018-06-27T09:53:42.945Z,79.50
2018-06-27T09:56:11.177Z,79.00
2018-06-27T09:58:39.885Z,78.00
2018-06-27T10:01:08.160Z,78.50
2018-06-27T10:03:36.408Z,77.80
2018-06-27T10:06:04.652Z,78.20
2018-06-27T10:08:32.891Z,77.90
2018-06-27T10:11:01.100Z,77.20
2018-06-27T10:13:29.759Z,76.30
2018-06-27T10:15:58.458Z,76.40
2018-06-27T10:18:26.736Z,75.30
2018-06-27T10:20:55.441Z,74.30
2018-06-27T10:23:23.699Z,75.20
2018-06-27T10:25:51.883Z,75.50
2018-06-27T10:28:20.660Z,73.40
2018-06-27T10:30:49.302Z,72.90
2018-06-27T10:33:17.615Z,72.10
2018-06-27T10:35:45.939Z,71.90
2018-06-27T10:38:14.074Z,73.10
2018-06-27T10:40:42.916Z,73.60
2018-06-27T10:43:11.131Z,72.70
2018-06-27T10:45:39.386Z,70.70
2018-06-27T10:48:07.590Z,70.00
2018-06-27T10:50:35.832Z,72.60
2018-06-27T10:53:04.403Z,71.80
2018-06-27T10:55:32.623Z,71.50
2018-06-27T10:58:00.828Z,71.00
2018-06-27T11:00:29.011Z,71.10
2018-06-27T11:02:57.768Z,69.40
2018-06-27T11:05:26.086Z,70.70
2018-06-27T11:07:54.276Z,70.70
2018-06-27T11:10:23.127Z,70.00
2018-06-27T11:12:51.388Z,72.00
2018-06-27T11:15:20.185Z,71.50
2018-06-27T11:17:48.395Z,71.50
2018-06-27T11:20:16.646Z,72.10
2018-06-27T11:22:44.903Z,71.00
2018-06-27T11:25:13.577Z,70.90
2018-06-27T11:27:42.135Z,68.00
2018-06-27T11:30:10.815Z,69.50
2018-06-27T11:32:39.148Z,70.50
2018-06-27T11:35:07.370Z,71.10
2018-06-27T11:37:35.644Z,70.70
2018-06-27T11:40:04.119Z,68.70
2018-06-27T11:42:32.371Z,70.00
2018-06-27T11:45:00.606Z,68.40
2018-06-27T11:47:28.831Z,66.60
2018-06-27T11:49:57.404Z,66.20
2018-06-27T11:52:25.655Z,65.30
2018-06-27T11:54:59.203Z,66.90
2018-06-27T11:57:27.487Z,63.10
2018-06-27T11:59:55.843Z,63.40
2018-06-27T12:04:52.109Z,56.90
2018-06-27T12:07:21.260Z,55.70
2018-06-27T12:09:49.511Z,59.40
2018-06-27T12:12:17.695Z,56.20
2018-06-27T12:14:45.943Z,57.60
2018-06-27T12:17:14.553Z,57.00
2018-06-27T12:19:42.835Z,56.30
2018-06-27T12:22:11.556Z,56.40
2018-06-27T12:27:09.783Z,55.90
2018-06-27T12:29:37.989Z,57.60
2018-06-27T12:32:06.253Z,60.00
2018-06-27T12:34:34.479Z,59.10
2018-06-27T12:37:02.715Z,60.10
2018-06-27T12:39:31.583Z,60.70
2018-06-27T12:41:59.820Z,60.30
2018-06-27T12:44:28.881Z,62.90
2018-06-27T12:46:57.128Z,63.30
2018-06-27T12:49:25.359Z,63.70
2018-06-27T12:51:53.651Z,63.70
2018-06-27T12:54:22.132Z,61.90
2018-06-27T12:56:50.332Z,61.90
2018-06-27T12:59:18.582Z,64.30
2018-06-27T13:01:46.830Z,63.70
2018-06-27T13:04:15.119Z,63.50
2018-06-27T13:06:43.379Z,62.40
2018-06-27T13:09:11.909Z,61.70
2018-06-27T13:11:41.495Z,63.70
2018-06-27T13:14:09.741Z,64.20
2018-06-27T13:16:37.963Z,64.80
2018-06-27T13:19:07.756Z,65.00
2018-06-27T13:21:36.016Z,65.10
2018-06-27T13:24:04.332Z,66.30
2018-06-27T13:26:32.619Z,68.30
2018-06-27T13:29:01.419Z,67.60
2018-06-27T13:31:31.489Z,69.00
2018-06-27T13:33:59.743Z,67.00
2018-06-27T13:36:27.947Z,68.70
2018-06-27T13:38:56.236Z,67.60
2018-06-27T13:41:24.545Z,67.10
2018-06-27T13:43:52.888Z,65.60
2018-06-27T13:46:21.692Z,64.30
2018-06-27T13:48:49.936Z,63.40
2018-06-27T13:51:18.168Z,62.70
2018-06-27T13:53:46.510Z,62.10
2018-06-27T13:56:14.684Z,62.00
2018-06-27T13:58:42.943Z,61.90
2018-06-27T14:01:11.199Z,64.10
2018-06-27T14:03:39.476Z,64.80
2018-06-27T14:06:07.686Z,64.20
2018-06-27T14:08:36.020Z,63.50
2018-06-27T14:11:04.322Z,62.90
2018-06-27T14:13:32.519Z,61.90
2018-06-27T14:16:00.795Z,61.70
2018-06-27T14:18:29.005Z,60.80
2018-06-27T14:20:57.256Z,61.10
2018-06-27T14:23:25.520Z,60.50
2018-06-27T14:25:53.815Z,60.70
2018-06-27T14:28:23.457Z,60.30
2018-06-27T14:30:51.715Z,60.40
2018-06-27T14:33:19.968Z,59.70
2018-06-27T14:35:48.232Z,60.10
2018-06-27T14:38:16.463Z,59.30
2018-06-27T14:40:44.742Z,58.30
2018-06-27T14:43:13.016Z,58.10
2018-06-27T14:45:41.271Z,58.40
2018-06-27T14:48:09.512Z,57.90
2018-06-27T14:50:38.268Z,56.70
2018-06-27T14:55:34.720Z,57.80
2018-06-27T14:58:03.331Z,57.20
2018-06-27T15:00:31.571Z,59.00
2018-06-27T15:02:59.816Z,58.60
2018-06-27T15:05:28.063Z,57.30
2018-06-27T15:07:56.299Z,57.10
2018-06-27T15:10:24.547Z,55.40
2018-06-27T15:12:52.747Z,55.80
2018-06-27T15:15:20.984Z,55.40
2018-06-27T15:17:49.273Z,55.40
2018-06-27T15:20:17.520Z,56.20
2018-06-27T15:22:47.693Z,56.10
2018-06-27T15:25:15.907Z,56.00
2018-06-27T15:27:44.200Z,57.00
2018-06-27T15:30:12.932Z,56.30
2018-06-27T15:32:41.176Z,56.30
2018-06-27T15:35:09.468Z,55.70
2018-06-27T15:37:37.710Z,54.60
2018-06-27T15:40:05.887Z,54.70
2018-06-27T15:42:34.104Z,54.50
2018-06-27T15:45:02.664Z,54.40
2018-06-27T15:47:30.909Z,53.90
2018-06-27T15:49:59.483Z,52.30
2018-06-27T15:52:27.687Z,52.00
2018-06-27T15:54:55.899Z,52.90
2018-06-27T15:57:24.209Z,53.40
2018-06-27T15:59:53.904Z,53.40
2018-06-27T16:02:22.720Z,53.10
2018-06-27T16:04:50.948Z,52.60
2018-06-27T16:07:19.905Z,52.50
2018-06-27T16:09:49.507Z,53.60
2018-06-27T16:12:17.971Z,53.40
2018-06-27T16:14:46.275Z,54.10
2018-06-27T16:17:14.619Z,55.10
2018-06-27T16:19:42.978Z,55.30
2018-06-27T16:22:11.399Z,54.40
2018-06-27T16:24:39.603Z,54.30
2018-06-27T16:27:07.867Z,52.80
2018-06-27T16:29:36.192Z,52.60
2018-06-27T16:32:04.410Z,52.30
2018-06-27T16:34:33.626Z,52.10
2018-06-27T16:37:01.860Z,54.20
2018-06-27T16:39:30.337Z,55.70
2018-06-27T16:41:58.631Z,56.50
2018-06-27T16:44:26.879Z,55.70
2018-06-27T16:46:55.308Z,54.00
2018-06-27T16:49:23.583Z,55.30
2018-06-27T16:51:51.822Z,56.90
2018-06-27T16:54:20.090Z,57.80
2018-06-27T16:56:48.364Z,57.80
2018-06-27T16:59:16.605Z,57.80
2018-06-27T17:01:45.081Z,57.10
2018-06-27T17:04:13.389Z,55.00
2018-06-27T17:06:41.894Z,55.50
2018-06-27T17:09:10.761Z,57.60
2018-06-27T17:11:39.564Z,58.00
2018-06-27T17:14:08.284Z,59.10
2018-06-27T17:16:36.541Z,60.10
2018-06-27T17:19:04.892Z,59.30
2018-06-27T17:21:33.112Z,58.40
2018-06-27T17:24:01.373Z,59.10
2018-06-27T17:26:29.627Z,60.60
2018-06-27T17:28:57.879Z,62.00
2018-06-27T17:31:26.175Z,63.50
2018-06-27T17:33:54.405Z,64.40
2018-06-27T17:36:22.710Z,65.00
2018-06-27T17:38:50.951Z,65.40
2018-06-27T17:41:19.423Z,65.60
2018-06-27T17:43:47.747Z,66.60
2018-06-27T17:46:16.596Z,65.50
2018-06-27T17:48:44.843Z,65.20
2018-06-27T17:51:13.090Z,64.20
2018-06-27T17:53:41.397Z,64.00
2018-06-27T17:58:37.821Z,64.80
2018-06-27T18:01:06.128Z,65.70
2018-06-27T18:03:34.692Z,66.10
2018-06-27T18:06:02.950Z,67.40
2018-06-27T18:08:31.188Z,68.00
2018-06-27T18:11:00.068Z,68.60
2018-06-27T18:13:28.308Z,69.20
2018-06-27T18:15:56.585Z,69.80
2018-06-27T18:18:24.816Z,70.10
2018-06-27T18:20:53.065Z,70.10
2018-06-27T18:23:21.927Z,70.50
2018-06-27T18:25:50.156Z,71.40
2018-06-27T18:28:18.715Z,71.60
2018-06-27T18:30:47.371Z,72.00
2018-06-27T18:33:15.631Z,72.00
2018-06-27T18:35:44.800Z,72.70
2018-06-27T18:38:12.995Z,72.30
2018-06-27T18:43:11.068Z,73.30
2018-06-27T18:45:39.312Z,73.10
2018-06-27T18:48:07.616Z,73.50
2018-06-27T18:50:35.947Z,73.70
2018-06-27T18:53:04.185Z,74.40
2018-06-27T18:55:32.415Z,75.10
2018-06-27T18:58:00.650Z,76.30
2018-06-27T19:00:29.814Z,75.70
2018-06-27T19:02:58.007Z,75.50
2018-06-27T19:05:26.239Z,75.70
2018-06-27T19:07:55.111Z,75.70
2018-06-27T19:10:23.328Z,76.10
2018-06-27T19:12:51.547Z,77.30
2018-06-27T19:15:20.281Z,76.70
2018-06-27T19:17:48.636Z,77.20
2018-06-27T19:20:17.601Z,77.40
2018-06-27T19:22:45.885Z,78.00
2018-06-27T19:25:14.488Z,79.00
2018-06-27T19:27:42.717Z,79.20
2018-06-27T19:30:11.027Z,79.60
2018-06-27T19:32:39.514Z,80.70
2018-06-27T19:35:08.507Z,80.90
2018-06-27T19:37:37.469Z,80.70
2018-06-27T19:42:33.984Z,81.10
2018-06-27T19:45:02.243Z,80.90
2018-06-27T19:47:31.905Z,81.00
2018-06-27T19:50:00.157Z,81.00
2018-06-27T19:52:28.810Z,81.50
2018-06-27T19:54:57.808Z,81.90
2018-06-27T19:57:26.065Z,82.40
2018-06-27T19:59:54.297Z,82.40
2018-06-27T20:02:23.007Z,82.70
2018-06-27T20:04:51.243Z,83.00
2018-06-27T20:07:19.560Z,83.10
2018-06-27T20:09:47.800Z,83.90
2018-06-27T20:12:16.051Z,84.00
2018-06-27T20:14:44.386Z,84.20
2018-06-27T20:17:12.592Z,84.70
2018-06-27T20:19:40.816Z,85.10
2018-06-27T20:22:09.127Z,85.50
2018-06-27T20:24:37.399Z,85.80
2018-06-27T20:27:05.960Z,85.90
2018-06-27T20:29:34.206Z,86.10
2018-06-27T20:32:02.427Z,86.30
2018-06-27T20:34:30.658Z,86.40
2018-06-27T20:36:59.613Z,86.80
2018-06-27T20:39:28.056Z,87.10
2018-06-27T20:41:56.305Z,87.40
2018-06-27T20:44:24.584Z,87.80
2018-06-27T20:46:54.616Z,88.00
2018-06-27T20:49:23.688Z,88.50
2018-06-27T20:51:51.923Z,88.60
2018-06-27T20:54:20.127Z,89.10
2018-06-27T20:56:48.387Z,89.40
2018-06-27T20:59:16.827Z,89.80
2018-06-27T21:01:45.073Z,90.00
2018-06-27T21:04:13.355Z,90.10
2018-06-27T21:06:41.552Z,90.40
2018-06-27T21:11:39.301Z,90.70
2018-06-27T21:14:07.573Z,90.80
2018-06-27T21:16:35.776Z,90.90
2018-06-27T21:19:04.026Z,91.10
2018-06-27T21:21:32.308Z,91.30
2018-06-27T21:24:00.651Z,91.50
2018-06-27T21:26:29.727Z,91.60
2018-06-27T21:31:25.912Z,91.90
2018-06-27T21:33:54.153Z,92.50
2018-06-27T21:36:22.372Z,92.40
2018-06-27T21:38:51.503Z,92.50
2018-06-27T21:46:16.672Z,93.40
2018-06-27T21:48:45.376Z,93.60
2018-06-27T21:51:13.577Z,93.80
2018-06-27T21:53:41.928Z,94.00
2018-06-27T21:56:10.212Z,94.00
2018-06-27T21:58:38.492Z,94.10
2018-06-27T22:01:06.799Z,94.20
2018-06-27T22:03:35.032Z,94.50
2018-06-27T22:06:03.363Z,94.70
2018-06-27T22:08:31.579Z,94.80
2018-06-27T22:10:59.795Z,95.10
2018-06-27T22:13:28.071Z,95.20
2018-06-27T22:15:56.381Z,95.20
2018-06-27T22:20:53.397Z,95.50
2018-06-27T22:23:21.932Z,95.60
2018-06-27T22:25:50.191Z,95.80
2018-06-27T22:28:18.427Z,96.00
2018-06-27T22:30:46.699Z,96.20
2018-06-27T22:33:16.788Z,96.40
2018-06-27T22:35:45.076Z,96.80
2018-06-27T22:38:13.313Z,97.20
2018-06-27T22:40:41.755Z,97.80
2018-06-27T22:43:10.025Z,98.10
2018-06-27T22:45:38.230Z,98.40
2018-06-27T22:48:06.475Z,99.10
2018-06-27T22:50:35.084Z,99.20
2018-06-27T22:53:03.340Z,99.70
2018-06-27T22:55:32.860Z,99.90
2018-06-27T22:58:01.533Z,99.90
2018-06-27T23:00:29.770Z,99.90
2018-06-27T23:02:57.976Z,99.90
2018-06-27T23:05:26.220Z,99.90
2018-06-27T23:07:54.845Z,99.90
2018-06-27T23:10:23.063Z,99.90
2018-06-27T23:12:52.796Z,99.90
2018-06-27T23:15:21.136Z,99.90
2018-06-27T23:17:49.939Z,99.90
2018-06-27T23:20:18.131Z,99.90
2018-06-27T23:22:48.252Z,99.90
2018-06-27T23:25:18.024Z,99.90
2018-06-27T23:27:46.767Z,99.90
2018-06-27T23:30:16.667Z,99.90
2018-06-27T23:32:44.887Z,99.90
2018-06-27T23:35:13.164Z,99.90
2018-06-27T23:37:41.519Z,99.90
2018-06-27T23:40:09.783Z,99.90
2018-06-27T23:42:38.072Z,99.90
2018-06-27T23:45:07.032Z,99.90
2018-06-27T23:47:35.507Z,99.90
2018-06-27T23:50:03.996Z,99.90
2018-06-27T23:52:32.232Z,99.90
2018-06-27T23:55:01.259Z,99.90
2018-06-27T23:57:30.066Z,99.90
2018-06-27T23:59:59.098Z,99.90
